createdAt,value
2022-09-27T00:00:50.381Z,5.17
2022-09-27T00:03:17.990Z,5.35
2022-09-27T00:05:45.395Z,4.82
2022-09-27T00:08:12.752Z,5.28
2022-09-27T00:10:40.118Z,5.20
2022-09-27T00:13:07.467Z,4.97
2022-09-27T00:15:34.953Z,5.18
2022-09-27T00:18:02.417Z,4.78
2022-09-27T00:20:29.797Z,5.10
2022-09-27T00:22:57.142Z,4.82
2022-09-27T00:25:24.661Z,4.97
2022-09-27T00:27:52.419Z,4.80
2022-09-27T00:30:19.971Z,4.75
2022-09-27T00:32:47.476Z,4.50
2022-09-27T00:35:15.177Z,4.63
2022-09-27T00:37:42.722Z,4.50
2022-09-27T00:40:10.526Z,4.25
2022-09-27T00:42:37.984Z,4.28
2022-09-27T00:45:18.226Z,4.20
2022-09-27T00:48:01.463Z,4.10
2022-09-27T00:50:42.930Z,3.73
2022-09-27T00:53:46.807Z,3.53
2022-09-27T00:56:19.777Z,3.70
2022-09-27T00:58:53.342Z,3.40
2022-09-27T01:01:21.058Z,3.42
2022-09-27T01:04:22.984Z,3.37
2022-09-27T01:06:51.359Z,3.38
2022-09-27T01:09:19.177Z,3.25
2022-09-27T01:12:06.905Z,3.40
2022-09-27T01:15:13.218Z,3.50
2022-09-27T01:17:53.056Z,3.57
2022-09-27T01:20:55.176Z,3.65
2022-09-27T01:23:38.037Z,3.70
2022-09-27T01:26:48.711Z,3.50
2022-09-27T01:29:52.063Z,3.63
2022-09-27T01:32:33.194Z,3.47
2022-09-27T01:35:12.457Z,3.90
2022-09-27T01:38:13.435Z,3.80
2022-09-27T01:40:50.582Z,4.00
2022-09-27T01:44:07.154Z,4.18
2022-09-27T01:46:56.637Z,4.40
2022-09-27T01:50:00.874Z,3.90
2022-09-27T01:52:38.601Z,4.28
2022-09-27T01:55:09.965Z,3.92
2022-09-27T01:58:17.654Z,4.63
2022-09-27T02:00:54.130Z,4.37
2022-09-27T02:03:26.905Z,4.68
2022-09-27T02:06:22.219Z,4.68
2022-09-27T02:09:05.968Z,4.97
2022-09-27T02:11:58.618Z,5.72
2022-09-27T02:14:51.347Z,4.90
2022-09-27T02:17:37.982Z,5.50
2022-09-27T02:20:42.518Z,5.43
2022-09-27T02:23:29.001Z,5.40
2022-09-27T02:26:14.786Z,5.45
2022-09-27T02:29:00.735Z,5.17
2022-09-27T02:31:34.900Z,5.28
2022-09-27T02:34:11.343Z,5.60
2022-09-27T02:36:39.214Z,5.85
2022-09-27T02:39:07.899Z,5.32
2022-09-27T02:41:36.511Z,5.43
2022-09-27T02:44:08.998Z,5.35
2022-09-27T02:46:46.727Z,5.60
2022-09-27T02:49:20.047Z,4.03
2022-09-27T02:52:38.409Z,3.50
2022-09-27T02:55:20.290Z,4.53
2022-09-27T02:57:57.914Z,5.03
2022-09-27T03:01:07.461Z,4.88
2022-09-27T03:04:04.631Z,4.88
2022-09-27T03:06:33.464Z,5.07
2022-09-27T03:09:00.991Z,4.93
2022-09-27T03:11:28.416Z,5.18
2022-09-27T03:14:08.456Z,5.40
2022-09-27T03:16:42.440Z,5.03
2022-09-27T03:19:26.424Z,5.13
2022-09-27T03:22:22.194Z,5.20
2022-09-27T03:24:49.847Z,5.22
2022-09-27T03:27:17.482Z,4.40
2022-09-27T03:29:44.965Z,4.70
2022-09-27T03:32:12.652Z,4.50
2022-09-27T03:34:52.113Z,4.70
2022-09-27T03:37:19.838Z,4.35
2022-09-27T03:39:48.247Z,4.72
2022-09-27T03:42:16.241Z,5.38
2022-09-27T03:44:48.290Z,4.40
2022-09-27T03:47:15.785Z,4.30
2022-09-27T03:49:43.477Z,4.82
2022-09-27T03:52:13.442Z,4.25
2022-09-27T03:54:41.234Z,4.50
2022-09-27T03:57:08.672Z,4.00
2022-09-27T03:59:37.291Z,3.40
2022-09-27T04:02:25.105Z,2.65
2022-09-27T04:05:12.509Z,2.80
2022-09-27T04:07:40.392Z,2.28
2022-09-27T04:10:08.201Z,2.50
2022-09-27T04:12:36.172Z,3.10
2022-09-27T04:15:03.852Z,3.53
2022-09-27T04:17:49.627Z,4.30
2022-09-27T04:20:46.332Z,4.60
2022-09-27T04:23:15.293Z,5.05
2022-09-27T04:25:49.993Z,5.30
2022-09-27T04:28:42.223Z,5.75
2022-09-27T04:31:09.820Z,6.88
2022-09-27T04:34:05.105Z,6.28
2022-09-27T04:36:35.386Z,5.97
2022-09-27T04:39:13.329Z,6.03
2022-09-27T04:41:43.063Z,6.38
2022-09-27T04:44:11.568Z,6.40
2022-09-27T04:46:41.675Z,6.22
2022-09-27T04:49:10.967Z,6.03
2022-09-27T04:51:38.450Z,5.60
2022-09-27T04:54:06.053Z,5.50
2022-09-27T04:56:37.178Z,6.85
2022-09-27T04:59:09.925Z,6.13
2022-09-27T05:01:40.462Z,5.85
2022-09-27T05:04:15.862Z,6.10
2022-09-27T05:06:48.440Z,5.20
2022-09-27T05:09:24.843Z,4.43
2022-09-27T05:11:56.965Z,4.20
2022-09-27T05:14:33.336Z,1.98
2022-09-27T05:17:11.891Z,2.30
2022-09-27T05:20:15.188Z,4.57
2022-09-27T05:23:09.617Z,5.82
2022-09-27T05:25:37.055Z,5.80
2022-09-27T05:28:05.686Z,6.22
2022-09-27T05:30:33.660Z,6.30
2022-09-27T05:33:08.378Z,6.00
2022-09-27T05:35:59.055Z,5.80
2022-09-27T05:38:30.449Z,5.85
2022-09-27T05:41:00.534Z,6.07
2022-09-27T05:43:28.749Z,6.27
2022-09-27T05:46:01.077Z,5.38
2022-09-27T05:48:30.638Z,5.35
2022-09-27T05:51:02.303Z,5.18
2022-09-27T05:53:32.706Z,5.20
2022-09-27T05:56:04.512Z,5.77
2022-09-27T05:58:52.540Z,4.85
2022-09-27T06:01:20.620Z,5.40
2022-09-27T06:04:06.455Z,4.20
2022-09-27T06:07:12.219Z,3.80
2022-09-27T06:09:39.598Z,4.10
2022-09-27T06:12:11.898Z,4.03
2022-09-27T06:14:39.665Z,4.30
2022-09-27T06:17:13.061Z,4.00
2022-09-27T06:19:44.320Z,3.67
2022-09-27T06:22:12.726Z,3.77
2022-09-27T06:24:51.851Z,3.20
2022-09-27T06:27:23.593Z,3.80
2022-09-27T06:30:16.904Z,3.30
2022-09-27T06:32:59.233Z,3.67
2022-09-27T06:35:49.514Z,3.43
2022-09-27T06:38:21.460Z,3.30
2022-09-27T06:41:04.878Z,3.10
2022-09-27T06:43:44.347Z,3.58
2022-09-27T06:46:29.957Z,3.30
2022-09-27T06:49:25.897Z,3.77
2022-09-27T06:51:55.119Z,3.13
2022-09-27T06:54:23.283Z,3.60
2022-09-27T06:56:50.894Z,3.58
2022-09-27T06:59:36.810Z,3.47
2022-09-27T07:02:25.764Z,3.20
2022-09-27T07:05:16.187Z,2.70
2022-09-27T07:08:15.893Z,2.67
2022-09-27T07:10:43.428Z,2.90
2022-09-27T07:13:11.861Z,2.90
2022-09-27T07:15:42.063Z,2.80
2022-09-27T07:18:13.357Z,3.08
2022-09-27T07:20:41.158Z,3.00
2022-09-27T07:23:11.064Z,2.60
2022-09-27T07:25:38.480Z,2.70
2022-09-27T07:28:08.526Z,2.50
2022-09-27T07:30:38.266Z,2.72
2022-09-27T07:33:06.784Z,2.53
2022-09-27T07:35:34.410Z,2.58
2022-09-27T07:38:04.001Z,2.00
2022-09-27T07:40:31.512Z,2.60
2022-09-27T07:42:59.586Z,1.90
2022-09-27T07:45:27.422Z,1.80
2022-09-27T07:48:22.135Z,2.00
2022-09-27T07:51:15.487Z,2.20
2022-09-27T07:53:52.358Z,2.13
2022-09-27T07:56:48.218Z,2.60
2022-09-27T07:59:19.209Z,2.50
2022-09-27T08:01:46.862Z,2.38
2022-09-27T08:04:14.313Z,2.03
2022-09-27T08:06:43.194Z,2.10
2022-09-27T08:09:10.793Z,2.40
2022-09-27T08:11:40.051Z,2.30
2022-09-27T08:14:10.989Z,1.40
2022-09-27T08:16:41.609Z,1.10
2022-09-27T08:19:18.758Z,1.10
2022-09-27T08:22:02.147Z,0.93
2022-09-27T08:24:42.810Z,1.20
2022-09-27T08:27:28.706Z,1.20
2022-09-27T08:30:00.782Z,1.10
2022-09-27T08:32:29.110Z,1.27
2022-09-27T08:34:57.273Z,1.45
2022-09-27T08:37:24.918Z,1.50
2022-09-27T08:39:52.926Z,1.25
2022-09-27T08:42:28.642Z,1.20
2022-09-27T08:45:25.069Z,1.00
2022-09-27T08:48:01.038Z,1.20
2022-09-27T08:50:42.950Z,1.48
2022-09-27T08:54:07.164Z,1.20
2022-09-27T08:56:36.365Z,1.10
2022-09-27T08:59:22.988Z,1.27
2022-09-27T09:01:53.863Z,1.40
2022-09-27T09:04:41.487Z,1.20
2022-09-27T09:07:18.851Z,1.25
2022-09-27T09:10:16.411Z,1.23
2022-09-27T09:12:53.710Z,1.30
2022-09-27T09:16:05.977Z,1.30
2022-09-27T09:18:56.188Z,1.38
2022-09-27T09:21:55.849Z,1.50
2022-09-27T09:25:15.765Z,1.60
2022-09-27T09:28:02.672Z,1.40
2022-09-27T09:30:42.655Z,1.38
2022-09-27T09:33:27.464Z,1.70
2022-09-27T09:36:35.555Z,1.60
2022-09-27T09:39:25.194Z,1.58
2022-09-27T09:42:06.731Z,1.30
2022-09-27T09:44:52.101Z,1.55
2022-09-27T09:47:46.773Z,1.42
2022-09-27T09:50:23.253Z,1.55
2022-09-27T09:53:02.157Z,1.50
2022-09-27T09:55:34.507Z,1.43
2022-09-27T09:58:41.952Z,1.80
2022-09-27T10:01:16.409Z,1.60
2022-09-27T10:03:44.498Z,1.50
2022-09-27T10:06:13.606Z,1.70
2022-09-27T10:08:41.591Z,1.40
2022-09-27T10:11:44.683Z,1.40
2022-09-27T10:14:20.587Z,1.45
2022-09-27T10:16:59.051Z,1.60
2022-09-27T10:19:31.264Z,1.50
2022-09-27T10:22:21.983Z,1.50
2022-09-27T10:25:02.189Z,1.20
2022-09-27T10:27:47.166Z,1.40
2022-09-27T10:30:31.882Z,1.38
2022-09-27T10:33:08.251Z,1.20
2022-09-27T10:35:46.526Z,1.57
2022-09-27T10:38:24.805Z,1.30
2022-09-27T10:40:59.608Z,1.65
2022-09-27T10:43:34.447Z,1.50
2022-09-27T10:46:27.484Z,1.27
2022-09-27T10:49:11.232Z,1.50
2022-09-27T10:51:39.639Z,1.40
2022-09-27T10:54:19.863Z,1.30
2022-09-27T10:56:56.639Z,1.50
2022-09-27T10:59:24.944Z,1.48
2022-09-27T11:01:53.331Z,1.77
2022-09-27T11:04:39.131Z,1.40
2022-09-27T11:07:09.679Z,1.23
2022-09-27T11:09:48.708Z,1.60
2022-09-27T11:12:20.951Z,1.50
2022-09-27T11:15:03.188Z,1.63
2022-09-27T11:17:58.836Z,1.50
2022-09-27T11:20:38.287Z,1.33
2022-09-27T11:23:19.546Z,1.73
2022-09-27T11:25:57.996Z,1.40
2022-09-27T11:28:42.233Z,1.50
2022-09-27T11:31:58.091Z,1.60
2022-09-27T11:34:40.868Z,1.30
2022-09-27T11:37:23.234Z,1.60
2022-09-27T11:40:32.531Z,1.40
2022-09-27T11:43:10.600Z,1.57
2022-09-27T11:46:14.326Z,1.40
2022-09-27T11:48:48.662Z,1.40
2022-09-27T11:51:49.698Z,1.40
2022-09-27T11:54:44.443Z,1.70
2022-09-27T11:57:36.021Z,1.50
2022-09-27T12:00:10.518Z,1.60
2022-09-27T12:03:05.502Z,1.40
2022-09-27T12:05:57.738Z,1.42
2022-09-27T12:08:46.177Z,1.60
2022-09-27T12:11:14.899Z,1.57
2022-09-27T12:13:49.891Z,1.40
2022-09-27T12:16:19.986Z,1.52
2022-09-27T12:18:51.669Z,1.33
2022-09-27T12:21:36.752Z,1.40
2022-09-27T12:24:04.346Z,1.47
2022-09-27T12:27:00.090Z,1.23
2022-09-27T12:29:34.749Z,1.45
2022-09-27T12:32:25.426Z,1.38
2022-09-27T12:35:04.824Z,1.77
2022-09-27T12:37:37.390Z,1.70
2022-09-27T12:40:42.168Z,1.50
2022-09-27T12:43:19.182Z,1.58
2022-09-27T12:46:52.967Z,1.52
2022-09-27T12:49:36.729Z,1.60
2022-09-27T12:52:08.930Z,1.50
2022-09-27T12:55:06.093Z,1.42
2022-09-27T12:57:52.158Z,1.60
2022-09-27T13:00:28.956Z,1.50
2022-09-27T13:03:20.495Z,1.63
2022-09-27T13:06:25.243Z,1.50
2022-09-27T13:09:02.854Z,1.70
2022-09-27T13:12:01.665Z,1.33
2022-09-27T13:14:34.890Z,1.63
2022-09-27T13:17:02.668Z,1.38
2022-09-27T13:19:38.706Z,1.23
2022-09-27T13:22:28.582Z,1.40
2022-09-27T13:25:43.894Z,1.45
2022-09-27T13:28:29.805Z,1.40
2022-09-27T13:31:01.470Z,1.40
2022-09-27T13:33:51.653Z,1.37
2022-09-27T13:36:26.432Z,1.58
2022-09-27T13:39:06.625Z,1.60
2022-09-27T13:41:45.746Z,1.50
2022-09-27T13:44:25.550Z,1.30
2022-09-27T13:47:38.472Z,1.40
2022-09-27T13:50:29.400Z,1.38
2022-09-27T13:53:18.750Z,1.58
2022-09-27T13:55:48.338Z,1.45
2022-09-27T13:58:53.118Z,1.45
2022-09-27T14:01:51.835Z,1.43
2022-09-27T14:04:47.113Z,1.70
2022-09-27T14:07:19.303Z,1.60
2022-09-27T14:09:52.407Z,1.50
2022-09-27T14:12:27.781Z,1.73
2022-09-27T14:14:56.919Z,1.80
2022-09-27T14:17:26.422Z,1.45
2022-09-27T14:19:54.666Z,1.65
2022-09-27T14:22:24.725Z,1.33
2022-09-27T14:24:56.746Z,1.48
2022-09-27T14:27:38.676Z,1.10
2022-09-27T14:30:21.229Z,1.60
2022-09-27T14:32:58.749Z,1.63
2022-09-27T14:35:55.169Z,1.60
2022-09-27T14:38:38.043Z,1.40
2022-09-27T14:41:11.636Z,1.40
2022-09-27T14:43:44.847Z,1.30
2022-09-27T14:46:32.638Z,1.40
2022-09-27T14:49:25.226Z,1.40
2022-09-27T14:51:56.921Z,1.60
2022-09-27T14:54:31.726Z,1.87
2022-09-27T14:57:00.570Z,1.90
2022-09-27T14:59:34.904Z,1.70
2022-09-27T15:02:16.531Z,1.50
2022-09-27T15:04:47.215Z,1.40
2022-09-27T15:07:18.148Z,1.60
2022-09-27T15:09:46.502Z,1.50
2022-09-27T15:12:25.935Z,1.80
2022-09-27T15:14:55.794Z,1.58
2022-09-27T15:17:23.466Z,1.50
2022-09-27T15:20:20.428Z,1.70
2022-09-27T15:22:49.181Z,2.20
2022-09-27T15:25:22.055Z,1.70
2022-09-27T15:27:55.138Z,1.65
2022-09-27T15:30:34.859Z,1.60
2022-09-27T15:33:02.953Z,1.70
2022-09-27T15:35:33.632Z,1.65
2022-09-27T15:38:25.568Z,1.60
2022-09-27T15:40:53.236Z,2.10
2022-09-27T15:43:23.492Z,1.65
2022-09-27T15:45:53.304Z,2.33
2022-09-27T15:48:21.548Z,1.70
2022-09-27T15:50:50.114Z,1.70
2022-09-27T15:53:35.987Z,1.80
2022-09-27T15:56:04.514Z,1.70
2022-09-27T15:58:32.010Z,1.70
2022-09-27T16:01:05.832Z,1.90
2022-09-27T16:03:33.311Z,2.03
2022-09-27T16:06:02.568Z,1.90
2022-09-27T16:08:30.358Z,1.75
2022-09-27T16:10:59.792Z,1.87
2022-09-27T16:13:32.676Z,1.80
2022-09-27T16:16:03.786Z,2.00
2022-09-27T16:18:33.109Z,1.92
2022-09-27T16:21:00.564Z,1.85
2022-09-27T16:23:28.005Z,1.90
2022-09-27T16:25:55.703Z,1.80
2022-09-27T16:28:23.088Z,2.35
2022-09-27T16:30:50.460Z,2.00
2022-09-27T16:33:18.235Z,2.10
2022-09-27T16:35:45.646Z,2.33
2022-09-27T16:38:13.257Z,2.13
2022-09-27T16:40:40.824Z,2.00
2022-09-27T16:43:08.274Z,1.80
2022-09-27T16:45:36.860Z,2.15
2022-09-27T16:48:05.080Z,1.80
2022-09-27T16:50:51.301Z,1.80
2022-09-27T16:53:18.844Z,1.75
2022-09-27T16:55:46.321Z,2.00
2022-09-27T16:58:13.864Z,1.67
2022-09-27T17:00:43.056Z,2.03
2022-09-27T17:03:10.571Z,2.00
2022-09-27T17:05:37.962Z,1.90
2022-09-27T17:08:05.738Z,1.85
2022-09-27T17:10:33.113Z,1.75
2022-09-27T17:13:02.232Z,2.60
2022-09-27T17:15:29.894Z,1.20
2022-09-27T17:17:57.259Z,1.52
2022-09-27T17:20:24.933Z,1.55
2022-09-27T17:22:52.489Z,1.65
2022-09-27T17:25:19.846Z,1.60
2022-09-27T17:27:47.140Z,1.30
2022-09-27T17:30:14.619Z,1.73
2022-09-27T17:32:41.956Z,1.52
2022-09-27T17:35:09.972Z,1.40
2022-09-27T17:37:37.374Z,1.40
2022-09-27T17:40:05.996Z,1.75
2022-09-27T17:42:34.499Z,1.60
2022-09-27T17:45:04.767Z,1.60
2022-09-27T17:47:52.793Z,1.60
2022-09-27T17:50:26.084Z,1.43
2022-09-27T17:52:54.427Z,1.63
2022-09-27T17:55:22.629Z,1.33
2022-09-27T17:57:51.472Z,1.42
2022-09-27T18:00:20.696Z,1.20
2022-09-27T18:02:48.839Z,1.20
2022-09-27T18:05:16.535Z,1.60
2022-09-27T18:07:43.941Z,1.70
2022-09-27T18:10:11.719Z,1.50
2022-09-27T18:12:41.433Z,2.35
2022-09-27T18:15:09.480Z,1.87
2022-09-27T18:17:37.590Z,1.60
2022-09-27T18:20:06.120Z,2.20
2022-09-27T18:22:33.494Z,2.38
2022-09-27T18:25:01.256Z,2.17
2022-09-27T18:27:29.745Z,2.20
2022-09-27T18:29:57.361Z,2.22
2022-09-27T18:32:24.717Z,2.15
2022-09-27T18:34:52.025Z,2.00
2022-09-27T18:37:19.334Z,2.47
2022-09-27T18:39:46.654Z,2.10
2022-09-27T18:42:13.985Z,2.75
2022-09-27T18:44:41.325Z,1.90
2022-09-27T18:47:08.864Z,1.85
2022-09-27T18:49:36.218Z,1.90
2022-09-27T18:52:03.628Z,1.50
2022-09-27T18:54:30.970Z,1.88
2022-09-27T18:56:58.522Z,1.80
2022-09-27T18:59:25.961Z,2.05
2022-09-27T19:01:53.584Z,2.30
2022-09-27T19:04:26.724Z,2.13
2022-09-27T19:06:55.960Z,2.60
2022-09-27T19:09:23.510Z,3.58
2022-09-27T19:11:51.952Z,2.30
2022-09-27T19:14:21.573Z,2.42
2022-09-27T19:16:49.850Z,2.60
2022-09-27T19:19:18.157Z,2.42
2022-09-27T19:21:46.645Z,1.98
2022-09-27T19:24:14.693Z,1.88
2022-09-27T19:26:42.325Z,1.95
2022-09-27T19:29:10.326Z,1.97
2022-09-27T19:31:37.786Z,1.90
2022-09-27T19:34:05.215Z,2.15
2022-09-27T19:36:32.880Z,1.90
2022-09-27T19:39:01.523Z,1.55
2022-09-27T19:41:28.980Z,1.37
2022-09-27T19:43:57.509Z,1.63
2022-09-27T19:46:25.807Z,1.33
2022-09-27T19:48:54.141Z,1.50
2022-09-27T19:51:26.477Z,1.50
2022-09-27T19:53:54.832Z,1.50
2022-09-27T19:56:23.135Z,1.52
2022-09-27T19:58:50.951Z,1.50
2022-09-27T20:01:21.365Z,2.55
2022-09-27T20:03:50.816Z,1.80
2022-09-27T20:06:19.891Z,1.90
2022-09-27T20:08:50.572Z,2.15
2022-09-27T20:11:20.487Z,1.90
2022-09-27T20:13:48.743Z,1.67
2022-09-27T20:16:19.607Z,1.90
2022-09-27T20:18:49.301Z,2.10
2022-09-27T20:21:18.391Z,1.70
2022-09-27T20:23:50.540Z,2.05
2022-09-27T20:26:19.592Z,2.13
2022-09-27T20:28:50.846Z,2.00
2022-09-27T20:31:25.226Z,1.63
2022-09-27T20:33:52.926Z,1.85
2022-09-27T20:36:22.111Z,2.03
2022-09-27T20:38:57.130Z,2.33
2022-09-27T20:41:29.809Z,1.75
2022-09-27T20:44:02.345Z,1.90
2022-09-27T20:46:30.523Z,1.98
2022-09-27T20:49:03.528Z,1.70
2022-09-27T20:51:34.993Z,2.58
2022-09-27T20:54:05.417Z,1.80
2022-09-27T20:56:35.734Z,1.70
2022-09-27T20:59:11.528Z,1.67
2022-09-27T21:01:48.041Z,2.03
2022-09-27T21:04:17.385Z,1.88
2022-09-27T21:06:47.495Z,1.75
2022-09-27T21:09:20.112Z,1.80
2022-09-27T21:11:52.233Z,1.88
2022-09-27T21:14:20.030Z,1.83
2022-09-27T21:16:47.914Z,2.00
2022-09-27T21:19:15.405Z,2.05
2022-09-27T21:21:42.814Z,2.00
2022-09-27T21:24:10.429Z,1.83
2022-09-27T21:26:38.300Z,1.52
2022-09-27T21:29:08.882Z,1.90
2022-09-27T21:31:37.395Z,1.80
2022-09-27T21:34:06.337Z,1.83
2022-09-27T21:36:36.444Z,1.90
2022-09-27T21:39:08.229Z,2.10
2022-09-27T21:41:36.559Z,1.85
2022-09-27T21:44:06.207Z,1.88
2022-09-27T21:46:34.408Z,2.00
2022-09-27T21:49:04.191Z,1.80
2022-09-27T21:51:36.787Z,1.77
2022-09-27T21:54:07.570Z,2.30
2022-09-27T21:56:38.352Z,2.20
2022-09-27T21:59:08.921Z,2.27
2022-09-27T22:01:36.661Z,2.28
2022-09-27T22:04:06.817Z,2.08
2022-09-27T22:06:37.135Z,2.70
2022-09-27T22:09:14.356Z,2.50
2022-09-27T22:11:47.826Z,3.70
2022-09-27T22:14:17.558Z,2.85
2022-09-27T22:16:44.877Z,2.80
2022-09-27T22:19:14.620Z,2.53
2022-09-27T22:21:42.557Z,3.20
2022-09-27T22:24:17.863Z,2.80
2022-09-27T22:26:51.003Z,2.65
2022-09-27T22:29:18.963Z,2.63
2022-09-27T22:31:46.711Z,2.60
2022-09-27T22:34:21.102Z,2.80
2022-09-27T22:36:48.899Z,2.67
2022-09-27T22:39:16.488Z,2.28
2022-09-27T22:41:43.897Z,2.80
2022-09-27T22:44:11.413Z,2.80
2022-09-27T22:46:39.124Z,2.47
2022-09-27T22:49:06.550Z,2.57
2022-09-27T22:51:34.173Z,2.47
2022-09-27T22:54:02.142Z,2.53
2022-09-27T22:56:30.645Z,2.60
2022-09-27T22:58:59.201Z,2.95
2022-09-27T23:01:26.797Z,2.67
2022-09-27T23:03:54.571Z,2.40
2022-09-27T23:06:23.943Z,3.00
2022-09-27T23:08:56.226Z,2.72
2022-09-27T23:11:24.949Z,3.10
2022-09-27T23:13:53.188Z,2.87
2022-09-27T23:16:25.560Z,2.67
2022-09-27T23:18:57.164Z,2.72
2022-09-27T23:21:26.034Z,2.88
2022-09-27T23:23:57.013Z,2.83
2022-09-27T23:26:26.433Z,2.90
2022-09-27T23:29:01.161Z,2.70
2022-09-27T23:31:30.957Z,2.70
2022-09-27T23:34:01.931Z,2.92
2022-09-27T23:36:29.318Z,2.40
2022-09-27T23:39:01.196Z,2.80
2022-09-27T23:41:29.065Z,2.72
2022-09-27T23:43:56.878Z,2.58
2022-09-27T23:46:25.362Z,3.08
2022-09-27T23:48:53.763Z,2.88
2022-09-27T23:51:21.209Z,2.80
2022-09-27T23:53:48.612Z,2.80
2022-09-27T23:56:17.560Z,2.75
2022-09-27T23:58:46.430Z,2.45
